Time;durP1;ratioP1;P1;durP2;ratioP2;P2;SDS_P1;SDS_P2;PMS_P1;PMS_P2;Temp;Humidity;BMP_temperature;BMP_pressure;BME280_temperature;BME280_humidity;BME280_pressure;Samples;Min_cycle;Max_cycle;Signal;HPM_P1;HPM_P2
2022/03/14 00:01:27;;;;;;;2.15;1.60;;;16.00;72.90;;;;;;4990330;28;20417;-81
2022/03/14 00:03:55;;;;;;;2.55;1.88;;;16.00;72.90;;;;;;4980912;28;20055;-82
2022/03/14 00:06:21;;;;;;;2.08;1.70;;;16.00;72.90;;;;;;4981100;28;20025;-81
2022/03/14 00:08:47;;;;;;;2.45;1.50;;;15.90;72.80;;;;;;4996747;28;20163;-83
2022/03/14 00:11:17;;;;;;;2.35;1.70;;;16.00;72.90;;;;;;5013371;28;20032;-82
2022/03/14 00:13:46;;;;;;;2.00;1.73;;;15.90;72.90;;;;;;5009883;28;20025;-83
2022/03/14 00:16:26;;;;;;;2.00;1.50;;;15.90;73.00;;;;;;4997441;28;20044;-82
2022/03/14 00:18:55;;;;;;;1.80;1.60;;;15.90;72.90;;;;;;4998109;28;20022;-82
2022/03/14 00:21:25;;;;;;;1.95;1.65;;;15.90;73.00;;;;;;5006142;28;20056;-82
2022/03/14 00:23:55;;;;;;;1.67;1.42;;;15.90;73.00;;;;;;5001343;28;20081;-81
2022/03/14 00:26:22;;;;;;;2.35;1.63;;;15.90;73.60;;;;;;4997465;28;20060;-82
2022/03/14 00:28:48;;;;;;;1.70;1.50;;;15.80;72.90;;;;;;4995529;28;20068;-82
2022/03/14 00:31:15;;;;;;;1.60;1.45;;;15.80;73.00;;;;;;5000621;28;20025;-81
2022/03/14 00:33:41;;;;;;;1.95;1.63;;;15.80;73.00;;;;;;4991695;28;20117;-81
2022/03/14 00:36:08;;;;;;;1.50;1.40;;;15.80;73.00;;;;;;5006148;28;20165;-82
2022/03/14 00:38:38;;;;;;;2.05;1.70;;;15.80;73.00;;;;;;4982766;28;20418;-82
2022/03/14 00:41:05;;;;;;;2.35;1.50;;;15.80;73.00;;;;;;5007412;28;20116;-83
2022/03/14 00:43:33;;;;;;;2.58;1.60;;;15.80;73.00;;;;;;5002668;28;20030;-81
2022/03/14 00:45:59;;;;;;;2.13;1.50;;;15.70;73.00;;;;;;4998509;28;20065;-81
2022/03/14 00:48:25;;;;;;;2.10;1.60;;;15.70;73.00;;;;;;5012478;28;20115;-82
2022/03/14 00:50:51;;;;;;;1.58;1.45;;;15.70;73.00;;;;;;5011423;28;20464;-81
2022/03/14 00:53:18;;;;;;;1.63;1.33;;;15.70;73.00;;;;;;5000774;28;20029;-81
2022/03/14 00:55:43;;;;;;;1.45;1.33;;;15.70;73.00;;;;;;5000452;28;20116;-82
2022/03/14 00:58:09;;;;;;;1.83;1.45;;;15.70;73.00;;;;;;4984179;28;20854;-80
2022/03/14 01:00:35;;;;;;;1.63;1.50;;;15.70;73.00;;;;;;5000794;28;20029;-81
2022/03/14 01:03:01;;;;;;;1.55;1.40;;;15.60;73.00;;;;;;5016698;28;20528;-81
2022/03/14 01:05:28;;;;;;;2.03;1.58;;;15.60;73.10;;;;;;5000549;28;20099;-81
2022/03/14 01:07:55;;;;;;;1.33;1.23;;;15.60;73.10;;;;;;5000293;28;20025;-81
2022/03/14 01:10:22;;;;;;;1.45;1.30;;;15.60;73.10;;;;;;4997556;28;20034;-81
2022/03/14 01:12:49;;;;;;;1.65;1.20;;;15.60;73.10;;;;;;5000645;28;20030;-81
2022/03/14 01:15:15;;;;;;;1.48;1.38;;;15.60;73.10;;;;;;4999900;28;20450;-81
2022/03/14 01:17:40;;;;;;;2.03;1.52;;;15.60;73.10;;;;;;5000244;28;20029;-80
2022/03/14 01:20:08;;;;;;;1.50;1.40;;;15.60;73.10;;;;;;4999783;28;20450;-81
2022/03/14 01:22:35;;;;;;;1.63;1.33;;;15.60;73.20;;;;;;4999805;28;20091;-82
2022/03/14 01:25:03;;;;;;;1.88;1.40;;;15.50;73.10;;;;;;5005715;28;20557;-81
2022/03/14 01:27:29;;;;;;;1.42;1.33;;;15.50;73.10;;;;;;4984296;28;20033;-82
2022/03/14 01:29:55;;;;;;;1.70;1.33;;;15.50;73.10;;;;;;5006071;28;20085;-82
2022/03/14 01:32:21;;;;;;;1.70;1.50;;;15.50;73.10;;;;;;4999619;28;20029;-83
2022/03/14 01:34:47;;;;;;;1.55;1.40;;;15.50;73.10;;;;;;4997227;28;20529;-83
2022/03/14 01:37:12;;;;;;;2.42;1.50;;;15.50;73.20;;;;;;4980487;28;20080;-82
2022/03/14 01:39:38;;;;;;;1.50;1.33;;;15.50;73.20;;;;;;5016095;28;20124;-82
2022/03/14 01:42:04;;;;;;;1.70;1.50;;;15.50;73.30;;;;;;4983672;28;20080;-81
2022/03/14 01:44:30;;;;;;;1.50;1.40;;;15.50;73.30;;;;;;4996475;28;20060;-81
2022/03/14 01:46:57;;;;;;;1.60;1.45;;;15.50;73.30;;;;;;5021514;28;20042;-82
2022/03/14 01:49:23;;;;;;;1.50;1.40;;;15.40;73.30;;;;;;4964848;28;20370;-82
2022/03/14 01:51:51;;;;;;;1.60;1.48;;;15.40;73.30;;;;;;4999591;28;20021;-82
2022/03/14 01:54:18;;;;;;;1.60;1.50;;;15.40;73.40;;;;;;4999485;28;20671;-82
2022/03/14 01:56:44;;;;;;;1.88;1.65;;;15.40;73.30;;;;;;4996908;28;20033;-82
2022/03/14 01:59:10;;;;;;;1.70;1.50;;;15.40;73.30;;;;;;4996412;28;20037;-82
2022/03/14 02:01:35;;;;;;;1.52;1.40;;;15.40;73.30;;;;;;4998210;28;20021;-83
2022/03/14 02:04:02;;;;;;;1.50;1.30;;;15.40;73.40;;;;;;5011329;28;20041;-82
2022/03/14 02:06:28;;;;;;;1.65;1.38;;;15.30;73.30;;;;;;4992047;28;20084;-82
2022/03/14 02:08:55;;;;;;;1.45;1.33;;;15.40;73.30;;;;;;4998173;28;20417;-82
2022/03/14 02:11:21;;;;;;;2.17;1.45;;;15.30;73.30;;;;;;5014952;28;20046;-80
2022/03/14 02:13:47;;;;;;;1.65;1.55;;;15.30;73.30;;;;;;4998554;28;20017;-82
2022/03/14 02:16:13;;;;;;;1.92;1.45;;;15.30;73.30;;;;;;4998525;28;20030;-82
2022/03/14 02:18:39;;;;;;;1.98;1.50;;;15.30;73.40;;;;;;4996304;28;20116;-83
2022/03/14 02:21:08;;;;;;;1.63;1.48;;;15.30;73.40;;;;;;4978953;28;20021;-82
2022/03/14 02:23:34;;;;;;;1.40;1.30;;;15.30;73.50;;;;;;4995369;28;20434;-82
2022/03/14 02:26:00;;;;;;;1.98;1.50;;;15.30;73.50;;;;;;4997129;28;20095;-83
2022/03/14 02:28:27;;;;;;;1.52;1.33;;;15.20;73.50;;;;;;4995029;28;20430;-83
2022/03/14 02:30:54;;;;;;;2.25;1.60;;;15.20;73.50;;;;;;5000751;28;20061;-82
2022/03/14 02:33:20;;;;;;;1.40;1.30;;;15.20;73.50;;;;;;5006930;28;20057;-82
2022/03/14 02:35:47;;;;;;;1.58;1.48;;;15.20;73.50;;;;;;4994480;28;20033;-82
2022/03/14 02:38:16;;;;;;;1.73;1.48;;;15.20;73.50;;;;;;5007448;28;20034;-83
2022/03/14 02:40:46;;;;;;;1.60;1.40;;;15.20;73.90;;;;;;4988418;28;20029;-82
2022/03/14 02:43:15;;;;;;;1.80;1.40;;;15.20;73.60;;;;;;4999020;28;20036;-82
2022/03/14 02:45:41;;;;;;;1.73;1.50;;;15.10;73.60;;;;;;4986878;28;20076;-81
2022/03/14 02:48:07;;;;;;;1.65;1.48;;;15.20;73.70;;;;;;5005718;28;20060;-83
2022/03/14 02:50:35;;;;;;;1.95;1.70;;;15.10;73.60;;;;;;5009201;28;20084;-82
2022/03/14 02:53:03;;;;;;;1.85;1.50;;;15.10;73.70;;;;;;5012621;28;20079;-82
2022/03/14 02:55:29;;;;;;;2.15;1.58;;;15.10;73.80;;;;;;5009057;28;20033;-82
2022/03/14 02:57:55;;;;;;;1.77;1.50;;;15.10;73.80;;;;;;4986329;28;20064;-81
2022/03/14 03:00:21;;;;;;;1.67;1.40;;;15.10;73.80;;;;;;5014332;28;20038;-81
2022/03/14 03:02:46;;;;;;;1.60;1.50;;;15.10;73.80;;;;;;4982046;28;20037;-81
2022/03/14 03:05:12;;;;;;;2.28;1.75;;;15.10;73.80;;;;;;5013130;28;20068;-82
2022/03/14 03:07:39;;;;;;;2.20;1.60;;;15.00;73.80;;;;;;4990459;28;20048;-81
2022/03/14 03:10:07;;;;;;;2.55;1.80;;;15.00;73.90;;;;;;5006238;28;20051;-82
2022/03/14 03:12:32;;;;;;;1.67;1.48;;;15.00;73.90;;;;;;4999196;28;20047;-81
2022/03/14 03:14:59;;;;;;;1.70;1.45;;;15.00;73.90;;;;;;4997835;28;20466;-81
2022/03/14 03:17:26;;;;;;;1.90;1.42;;;15.00;73.90;;;;;;4972545;28;20099;-82
2022/03/14 03:19:51;;;;;;;2.45;1.70;;;15.00;74.00;;;;;;4997715;28;20033;-81
2022/03/14 03:22:17;;;;;;;1.73;1.45;;;15.00;74.00;;;;;;4977257;28;20045;-82
2022/03/14 03:24:43;;;;;;;2.00;1.60;;;15.00;74.10;;;;;;4973782;28;20235;-82
2022/03/14 03:27:09;;;;;;;2.38;1.65;;;14.90;74.10;;;;;;4991866;28;20602;-82
2022/03/14 03:29:35;;;;;;;2.13;1.60;;;14.90;74.10;;;;;;5003543;28;20025;-82
2022/03/14 03:32:01;;;;;;;2.15;1.70;;;14.90;74.10;;;;;;4995451;28;20034;-82
2022/03/14 03:34:27;;;;;;;1.95;1.60;;;14.90;74.00;;;;;;4981566;28;20456;-83
2022/03/14 03:36:52;;;;;;;2.60;1.70;;;14.90;74.10;;;;;;5003217;28;20025;-83
2022/03/14 03:39:18;;;;;;;1.85;1.40;;;14.90;74.10;;;;;;4980134;28;20041;-81
2022/03/14 03:41:44;;;;;;;1.88;1.52;;;14.90;74.00;;;;;;5005389;28;20046;-81
2022/03/14 03:44:10;;;;;;;2.55;1.80;;;14.90;74.00;;;;;;4997293;28;20029;-82
2022/03/14 03:46:36;;;;;;;2.20;1.70;;;14.80;73.90;;;;;;5014237;28;20100;-82
2022/03/14 03:49:05;;;;;;;1.75;1.60;;;14.80;74.00;;;;;;5012984;28;20017;-82
2022/03/14 03:51:30;;;;;;;1.85;1.55;;;14.80;74.00;;;;;;4989255;28;20045;-82
2022/03/14 03:53:56;;;;;;;1.88;1.67;;;14.80;74.00;;;;;;4982588;28;20041;-82
2022/03/14 03:56:22;;;;;;;1.90;1.60;;;14.80;74.00;;;;;;5011950;28;20032;-82
2022/03/14 03:58:48;;;;;;;2.10;1.60;;;14.80;74.10;;;;;;4997969;28;20116;-82
2022/03/14 04:01:23;;;;;;;2.13;1.67;;;14.80;74.00;;;;;;4992243;28;20128;-82
2022/03/14 04:03:54;;;;;;;2.50;2.05;;;14.80;74.10;;;;;;4984294;28;20072;-82
2022/03/14 04:06:22;;;;;;;2.28;1.65;;;14.70;74.00;;;;;;4997851;28;20037;-82
2022/03/14 04:08:48;;;;;;;2.50;1.80;;;14.70;74.00;;;;;;4997583;28;20030;-82
2022/03/14 04:11:16;;;;;;;2.15;1.70;;;14.70;74.00;;;;;;4997752;28;20032;-82
2022/03/14 04:13:42;;;;;;;2.70;2.17;;;14.70;74.10;;;;;;5000127;28;20033;-82
2022/03/14 04:16:08;;;;;;;1.88;1.58;;;14.70;74.20;;;;;;5011250;28;20038;-83
2022/03/14 04:18:34;;;;;;;2.40;1.80;;;14.70;74.30;;;;;;4979580;28;20072;-82
2022/03/14 04:21:00;;;;;;;2.20;1.88;;;14.70;74.20;;;;;;4998247;28;20030;-82
2022/03/14 04:23:30;;;;;;;2.75;2.08;;;14.70;74.90;;;;;;5012199;28;20040;-83
2022/03/14 04:25:57;;;;;;;2.35;1.95;;;14.70;74.20;;;;;;5014336;28;20037;-82
2022/03/14 04:28:24;;;;;;;1.70;1.58;;;14.60;74.10;;;;;;5000814;28;20095;-82
2022/03/14 04:30:50;;;;;;;2.03;1.60;;;14.60;74.20;;;;;;4999149;28;20088;-82
2022/03/14 04:33:16;;;;;;;2.47;1.90;;;14.60;74.20;;;;;;5003106;28;20034;-82
2022/03/14 04:35:42;;;;;;;2.13;1.88;;;14.60;74.20;;;;;;4999273;28;20022;-82
2022/03/14 04:38:08;;;;;;;2.47;1.88;;;14.60;74.20;;;;;;5007089;28;20028;-83
2022/03/14 04:40:35;;;;;;;2.30;1.90;;;14.60;74.30;;;;;;5000485;28;20033;-83
2022/03/14 04:43:06;;;;;;;2.38;2.00;;;14.60;74.30;;;;;;5008019;28;20046;-83
2022/03/14 04:45:32;;;;;;;1.95;1.60;;;14.50;74.50;;;;;;4997343;28;20317;-82
2022/03/14 04:47:59;;;;;;;1.90;1.70;;;14.50;74.50;;;;;;5005595;28;20065;-82
2022/03/14 04:50:26;;;;;;;2.78;1.92;;;14.50;74.50;;;;;;4983942;28;20034;-82
2022/03/14 04:52:52;;;;;;;2.50;1.80;;;14.50;74.50;;;;;;5026824;28;20033;-82
2022/03/14 04:55:17;;;;;;;2.22;1.65;;;14.50;74.60;;;;;;5000761;28;21352;-82
2022/03/14 04:57:43;;;;;;;2.42;1.88;;;14.50;74.60;;;;;;5000917;28;20036;-82
2022/03/14 05:00:09;;;;;;;2.70;2.05;;;14.50;74.70;;;;;;4999240;28;20033;-82
2022/03/14 05:02:35;;;;;;;2.17;1.77;;;14.50;74.70;;;;;;4989304;28;20038;-79
2022/03/14 05:05:01;;;;;;;1.90;1.52;;;14.40;74.70;;;;;;4981239;28;20030;-78
2022/03/14 05:07:27;;;;;;;2.63;2.15;;;14.40;74.60;;;;;;5030190;28;20500;-78
2022/03/14 05:09:53;;;;;;;2.30;1.70;;;14.40;74.60;;;;;;5006212;28;20033;-79
2022/03/14 05:12:19;;;;;;;2.20;1.73;;;14.40;74.60;;;;;;4991116;28;20037;-80
2022/03/14 05:14:44;;;;;;;2.45;2.00;;;14.40;74.70;;;;;;4995041;28;20014;-79
2022/03/14 05:17:10;;;;;;;3.08;2.28;;;14.40;74.60;;;;;;5028780;28;20057;-80
2022/03/14 05:19:38;;;;;;;2.28;2.00;;;14.40;74.70;;;;;;4981035;28;20509;-79
2022/03/14 05:22:04;;;;;;;2.42;2.03;;;14.40;74.70;;;;;;4977520;28;20132;-80
2022/03/14 05:24:30;;;;;;;2.58;2.08;;;14.40;74.70;;;;;;4997698;28;20120;-79
2022/03/14 05:26:57;;;;;;;4.43;2.05;;;14.40;74.80;;;;;;4998413;28;20107;-80
2022/03/14 05:29:23;;;;;;;3.13;2.22;;;14.30;74.70;;;;;;5013973;28;20040;-80
2022/03/14 05:31:49;;;;;;;2.70;2.13;;;14.30;74.70;;;;;;5015273;28;20034;-80
2022/03/14 05:34:15;;;;;;;3.03;2.17;;;14.30;74.70;;;;;;4998810;28;20029;-78
2022/03/14 05:36:41;;;;;;;2.70;2.00;;;14.30;74.70;;;;;;4989698;28;20072;-78
2022/03/14 05:39:07;;;;;;;3.42;2.40;;;14.30;74.70;;;;;;5005675;28;20104;-79
2022/03/14 05:41:33;;;;;;;2.92;2.47;;;14.30;74.70;;;;;;5012461;28;20017;-78
2022/03/14 05:43:58;;;;;;;3.50;2.58;;;14.30;74.80;;;;;;5013997;28;20430;-77
2022/03/14 05:46:24;;;;;;;2.92;2.20;;;14.20;74.70;;;;;;4974090;28;20485;-79
2022/03/14 05:48:50;;;;;;;3.67;2.70;;;14.20;74.70;;;;;;5006245;28;20382;-76
2022/03/14 05:51:16;;;;;;;3.13;2.60;;;14.20;74.70;;;;;;4997941;28;20416;-79
2022/03/14 05:53:42;;;;;;;4.93;2.85;;;14.20;74.80;;;;;;4997059;28;20671;-78
2022/03/14 05:56:07;;;;;;;3.70;2.90;;;14.20;74.90;;;;;;4994363;28;20056;-78
2022/03/14 05:58:33;;;;;;;4.07;3.00;;;14.20;74.80;;;;;;5010139;28;20034;-78
2022/03/14 06:00:59;;;;;;;3.65;3.10;;;14.20;74.80;;;;;;5002920;28;20029;-79
2022/03/14 06:03:25;;;;;;;4.38;3.20;;;14.10;74.70;;;;;;5001735;28;20060;-76
2022/03/14 06:05:51;;;;;;;4.30;3.30;;;14.20;74.80;;;;;;4997680;28;20021;-79
2022/03/14 06:08:17;;;;;;;4.00;3.30;;;14.10;74.70;;;;;;4994492;28;20033;-80
2022/03/14 06:10:46;;;;;;;4.78;3.50;;;14.10;75.40;;;;;;5018764;28;20025;-78
2022/03/14 06:13:15;;;;;;;4.22;3.30;;;14.10;74.70;;;;;;4997689;28;20041;-79
2022/03/14 06:15:42;;;;;;;4.90;3.60;;;14.10;74.80;;;;;;4994122;28;20032;-78
2022/03/14 06:18:09;;;;;;;4.85;3.65;;;14.10;74.80;;;;;;5004883;28;20029;-78
2022/03/14 06:20:35;;;;;;;4.57;3.72;;;14.10;74.80;;;;;;5013996;28;20029;-78
2022/03/14 06:23:01;;;;;;;4.05;3.13;;;14.00;74.80;;;;;;4997723;28;20041;-78
2022/03/14 06:25:27;;;;;;;4.38;3.40;;;14.10;74.80;;;;;;5014112;28;20037;-77
2022/03/14 06:27:53;;;;;;;5.00;3.72;;;14.00;74.70;;;;;;5014402;28;20064;-78
2022/03/14 06:30:19;;;;;;;4.80;3.80;;;14.00;74.70;;;;;;4979948;28;20033;-79
2022/03/14 06:32:47;;;;;;;5.30;3.75;;;14.00;74.80;;;;;;5031875;28;20091;-79
2022/03/14 06:35:14;;;;;;;4.88;3.75;;;14.00;74.80;;;;;;5022398;28;20033;-78
2022/03/14 06:37:41;;;;;;;4.57;3.47;;;14.00;74.90;;;;;;4997825;28;20536;-79
2022/03/14 06:40:07;;;;;;;4.93;3.90;;;14.00;74.90;;;;;;4989862;28;20083;-78
2022/03/14 06:42:36;;;;;;;5.03;3.78;;;13.90;74.80;;;;;;4995164;28;20384;-78
2022/03/14 06:45:03;;;;;;;5.13;3.85;;;13.90;74.90;;;;;;5014049;28;20386;-78
2022/03/14 06:47:29;;;;;;;5.28;3.88;;;13.90;74.90;;;;;;4997831;28;20030;-78
2022/03/14 06:49:55;;;;;;;4.72;3.88;;;13.90;74.90;;;;;;5014264;28;20028;-78
2022/03/14 06:52:21;;;;;;;4.78;3.85;;;13.90;74.90;;;;;;5005505;28;20448;-81
2022/03/14 06:54:46;;;;;;;5.60;3.83;;;13.90;74.90;;;;;;4989661;28;20422;-78
2022/03/14 06:57:12;;;;;;;5.13;3.90;;;13.90;74.90;;;;;;4987786;28;20104;-78
2022/03/14 06:59:38;;;;;;;5.40;4.22;;;13.80;74.90;;;;;;4998343;28;20025;-78
2022/03/14 07:02:05;;;;;;;4.75;3.72;;;13.80;74.80;;;;;;4996968;28;20045;-78
2022/03/14 07:04:31;;;;;;;4.80;3.80;;;13.80;74.90;;;;;;4996858;28;20045;-79
2022/03/14 07:06:58;;;;;;;5.70;4.40;;;13.80;74.90;;;;;;5013713;28;20079;-79
2022/03/14 07:09:24;;;;;;;5.13;3.95;;;13.80;74.90;;;;;;4970971;28;20044;-79
2022/03/14 07:11:51;;;;;;;5.30;4.07;;;13.80;74.90;;;;;;5013630;28;20105;-79
2022/03/14 07:14:19;;;;;;;5.22;3.85;;;13.80;75.00;;;;;;4997513;28;20038;-79
2022/03/14 07:16:46;;;;;;;5.68;4.20;;;13.80;75.00;;;;;;4989148;28;20488;-79
2022/03/14 07:19:11;;;;;;;6.80;4.35;;;13.80;75.00;;;;;;4994642;28;20026;-79
2022/03/14 07:21:38;;;;;;;4.80;3.90;;;13.80;75.00;;;;;;5011554;28;20393;-79
2022/03/14 07:24:04;;;;;;;5.20;4.10;;;13.70;75.00;;;;;;5031468;28;20074;-79
2022/03/14 07:26:30;;;;;;;5.30;4.20;;;13.70;75.00;;;;;;4987493;28;20058;-79
2022/03/14 07:28:56;;;;;;;5.55;4.40;;;13.70;75.00;;;;;;4971588;28;20027;-78
2022/03/14 07:31:22;;;;;;;5.80;4.45;;;13.70;75.00;;;;;;4977158;28;20479;-79
2022/03/14 07:33:48;;;;;;;6.25;4.93;;;13.70;75.00;;;;;;4968871;28;20070;-80
2022/03/14 07:36:14;;;;;;;5.50;4.60;;;13.70;75.00;;;;;;4947934;28;20042;-79
2022/03/14 07:38:40;;;;;;;6.18;4.93;;;13.70;75.10;;;;;;4984542;28;20030;-78
2022/03/14 07:41:08;;;;;;;5.85;4.50;;;13.70;75.10;;;;;;4965247;28;20030;-80
2022/03/14 07:43:34;;;;;;;5.70;4.53;;;13.70;75.10;;;;;;4979702;28;20149;-79
2022/03/14 07:46:01;;;;;;;5.75;4.60;;;13.70;75.10;;;;;;4980356;28;20118;-78
2022/03/14 07:48:27;;;;;;;5.10;4.05;;;13.60;75.10;;;;;;4981628;28;20551;-78
2022/03/14 07:50:53;;;;;;;7.05;5.20;;;13.70;75.20;;;;;;4970787;28;20115;-79
2022/03/14 07:53:19;;;;;;;6.38;4.55;;;13.70;75.10;;;;;;4974073;28;20042;-79
2022/03/14 07:55:45;;;;;;;6.82;5.30;;;13.70;75.10;;;;;;4960738;28;20030;-79
2022/03/14 07:58:11;;;;;;;6.60;4.60;;;13.60;75.10;;;;;;4971115;28;20027;-79
2022/03/14 08:00:36;;;;;;;5.97;4.82;;;13.60;75.10;;;;;;4975229;28;20106;-79
2022/03/14 08:03:02;;;;;;;5.88;4.80;;;13.60;75.00;;;;;;4995631;28;20114;-79
2022/03/14 08:05:28;;;;;;;5.43;4.57;;;13.60;75.00;;;;;;4970751;28;20035;-81
2022/03/14 08:07:54;;;;;;;5.78;4.80;;;13.60;75.00;;;;;;4974419;28;20497;-80
2022/03/14 08:10:21;;;;;;;6.05;4.53;;;13.60;74.90;;;;;;4973324;28;20045;-81
2022/03/14 08:12:49;;;;;;;5.85;4.72;;;13.60;74.90;;;;;;4984138;28;20089;-81
2022/03/14 08:15:26;;;;;;;6.90;5.00;;;13.60;74.90;;;;;;4981485;28;20033;-80
2022/03/14 08:17:53;;;;;;;6.65;5.15;;;13.60;74.90;;;;;;4967086;28;20042;-81
2022/03/14 08:20:20;;;;;;;6.72;5.28;;;13.60;74.90;;;;;;4950783;28;20037;-80
2022/03/14 08:22:46;;;;;;;6.10;4.70;;;13.60;74.90;;;;;;4979124;28;20053;-80
2022/03/14 08:25:12;;;;;;;6.22;4.85;;;13.60;74.90;;;;;;4970806;28;20034;-80
2022/03/14 08:27:38;;;;;;;6.22;4.95;;;13.60;74.90;;;;;;4988381;28;20058;-81
2022/03/14 08:30:05;;;;;;;7.00;5.13;;;13.60;74.90;;;;;;5009547;28;20546;-81
2022/03/14 08:32:34;;;;;;;6.35;5.22;;;13.60;74.90;;;;;;4977553;28;20478;-80
2022/03/14 08:35:07;;;;;;;6.70;5.53;;;13.60;74.90;;;;;;4993815;28;20055;-81
2022/03/14 08:37:41;;;;;;;6.70;5.38;;;13.60;74.90;;;;;;5009915;28;20028;-81
2022/03/14 08:40:13;;;;;;;6.32;5.53;;;13.60;74.90;;;;;;5001663;28;20120;-80
2022/03/14 08:42:40;;;;;;;7.15;5.75;;;13.60;74.90;;;;;;5002918;28;20647;-80
2022/03/14 08:45:07;;;;;;;7.57;5.53;;;13.60;74.90;;;;;;4992282;28;20083;-81
2022/03/14 08:47:34;;;;;;;6.85;5.90;;;13.60;74.90;;;;;;4989666;28;20037;-79
2022/03/14 08:50:02;;;;;;;7.00;5.72;;;13.60;75.00;;;;;;4987859;28;20026;-80
2022/03/14 08:52:29;;;;;;;7.25;6.00;;;13.60;74.90;;;;;;5009802;28;20129;-80
2022/03/14 08:54:56;;;;;;;7.30;6.05;;;13.60;75.00;;;;;;5010042;28;20033;-81
2022/03/14 08:57:22;;;;;;;7.75;5.82;;;13.60;74.90;;;;;;5004357;28;20042;-81
2022/03/14 08:59:48;;;;;;;8.00;5.80;;;13.60;74.90;;;;;;4994645;28;20033;-80
2022/03/14 09:02:14;;;;;;;7.22;5.80;;;13.60;74.90;;;;;;4995537;28;20049;-80
2022/03/14 09:04:44;;;;;;;7.63;6.22;;;13.60;75.00;;;;;;5013439;28;20211;-81
2022/03/14 09:07:10;;;;;;;7.13;5.97;;;13.60;75.00;;;;;;5011915;28;20033;-80
2022/03/14 09:09:36;;;;;;;8.30;6.28;;;13.60;75.00;;;;;;5008099;28;20038;-81
2022/03/14 09:12:03;;;;;;;7.20;6.10;;;13.60;75.00;;;;;;4996477;28;20040;-81
2022/03/14 09:14:31;;;;;;;7.22;6.32;;;13.60;74.90;;;;;;5012181;28;20046;-81
2022/03/14 09:16:57;;;;;;;8.50;7.03;;;13.60;75.60;;;;;;5012529;28;20026;-78
2022/03/14 09:19:25;;;;;;;7.25;6.32;;;13.60;75.00;;;;;;4995199;28;20351;-79
2022/03/14 09:21:52;;;;;;;7.15;6.18;;;13.60;75.00;;;;;;4972043;28;20047;-78
2022/03/14 09:24:19;;;;;;;7.43;6.38;;;13.70;75.00;;;;;;5011830;28;20549;-82
2022/03/14 09:26:45;;;;;;;7.60;6.63;;;13.60;75.00;;;;;;4977645;28;20138;-82
2022/03/14 09:29:10;;;;;;;8.00;6.88;;;13.60;75.00;;;;;;5007099;28;20088;-80
2022/03/14 09:31:36;;;;;;;8.27;7.05;;;13.60;75.00;;;;;;4968139;28;20459;-81
2022/03/14 09:34:02;;;;;;;8.45;7.05;;;13.70;75.00;;;;;;4971537;28;20084;-80
2022/03/14 09:36:28;;;;;;;9.48;7.60;;;13.70;75.00;;;;;;4987319;28;20030;-81
2022/03/14 09:38:54;;;;;;;8.13;6.68;;;13.70;75.10;;;;;;4979443;28;20120;-80
2022/03/14 09:41:23;;;;;;;8.35;7.18;;;13.70;75.00;;;;;;5011920;28;20033;-81
2022/03/14 09:43:51;;;;;;;7.70;6.63;;;13.70;75.00;;;;;;5011083;28;20076;-81
2022/03/14 09:46:20;;;;;;;8.35;6.95;;;13.70;75.00;;;;;;4984102;28;20059;-81
2022/03/14 09:48:58;;;;;;;8.48;6.45;;;13.70;75.00;;;;;;4987706;28;20632;-81
2022/03/14 09:51:24;;;;;;;8.25;6.93;;;13.70;75.10;;;;;;5003732;28;20491;-81
2022/03/14 09:53:51;;;;;;;8.18;6.85;;;13.70;75.10;;;;;;5011020;28;20033;-80
2022/03/14 09:56:17;;;;;;;9.30;7.13;;;13.70;75.00;;;;;;4994893;28;20073;-81
2022/03/14 09:58:45;;;;;;;8.73;7.25;;;13.70;75.10;;;;;;4978722;28;20029;-81
2022/03/14 10:01:11;;;;;;;8.55;7.38;;;13.70;75.10;;;;;;4979276;28;20030;-80
2022/03/14 10:03:37;;;;;;;8.50;7.15;;;13.70;75.10;;;;;;5010969;28;20390;-81
2022/03/14 10:06:03;;;;;;;9.02;7.45;;;13.80;75.10;;;;;;5011579;28;20025;-80
2022/03/14 10:08:28;;;;;;;9.15;7.70;;;13.70;75.10;;;;;;5011242;28;20052;-80
2022/03/14 10:10:54;;;;;;;8.55;7.63;;;13.80;75.10;;;;;;4986523;28;20030;-80
2022/03/14 10:13:20;;;;;;;8.38;7.40;;;13.70;75.10;;;;;;4986952;28;20084;-81
2022/03/14 10:15:46;;;;;;;10.38;8.30;;;13.80;75.10;;;;;;5010576;28;20038;-80
2022/03/14 10:18:16;;;;;;;9.43;7.95;;;13.80;75.10;;;;;;4994930;28;20045;-81
2022/03/14 10:21:02;;;;;;;9.02;8.05;;;13.80;75.10;;;;;;5011148;28;20041;-80
2022/03/14 10:23:33;;;;;;;8.85;7.75;;;13.80;75.20;;;;;;5010813;28;20030;-81
2022/03/14 10:26:00;;;;;;;10.52;8.15;;;13.80;75.10;;;;;;5007623;28;20049;-80
2022/03/14 10:28:32;;;;;;;10.07;8.23;;;13.80;75.80;;;;;;4982927;28;20482;-81
2022/03/14 10:31:00;;;;;;;9.55;8.00;;;13.90;75.20;;;;;;5005966;28;20064;-81
2022/03/14 10:33:30;;;;;;;8.82;7.55;;;13.90;75.80;;;;;;5032300;28;20112;-81
2022/03/14 10:35:57;;;;;;;9.27;8.00;;;13.90;75.20;;;;;;4997964;28;20376;-81
2022/03/14 10:38:26;;;;;;;9.25;8.18;;;13.90;75.10;;;;;;5014418;28;20025;-81
2022/03/14 10:40:56;;;;;;;10.32;8.07;;;13.90;75.10;;;;;;4988901;28;20095;-81
2022/03/14 10:43:29;;;;;;;9.98;8.90;;;13.90;75.20;;;;;;5006379;28;20029;-79
2022/03/14 10:45:59;;;;;;;9.75;8.30;;;14.00;75.20;;;;;;5013691;28;20041;-79
2022/03/14 10:48:43;;;;;;;9.57;8.05;;;14.00;75.20;;;;;;5014607;28;20041;-81
2022/03/14 10:51:11;;;;;;;10.27;8.52;;;14.00;75.20;;;;;;5014281;28;20485;-80
2022/03/14 10:53:47;;;;;;;9.90;8.63;;;14.00;75.10;;;;;;4998224;28;20064;-82
2022/03/14 10:56:15;;;;;;;9.52;8.43;;;14.00;75.10;;;;;;5014422;28;20021;-80
2022/03/14 10:58:43;;;;;;;10.23;7.93;;;14.00;75.10;;;;;;4997165;28;20501;-80
2022/03/14 11:01:12;;;;;;;9.60;8.23;;;14.00;75.10;;;;;;4995793;28;20091;-80
2022/03/14 11:03:41;;;;;;;10.68;9.00;;;14.10;75.10;;;;;;5013126;28;20057;-79
2022/03/14 11:06:11;;;;;;;9.32;8.38;;;14.10;75.10;;;;;;5005995;28;20041;-77
2022/03/14 11:08:40;;;;;;;9.80;8.80;;;14.10;75.10;;;;;;5005183;28;20112;-77
2022/03/14 11:11:12;;;;;;;9.43;8.27;;;14.20;75.10;;;;;;5031375;28;20035;-78
2022/03/14 11:13:39;;;;;;;10.20;9.00;;;14.20;75.10;;;;;;5005395;28;20030;-78
2022/03/14 11:16:10;;;;;;;10.18;8.32;;;14.20;75.10;;;;;;5013868;28;20080;-81
2022/03/14 11:18:37;;;;;;;9.15;8.07;;;14.20;75.10;;;;;;5032425;28;20466;-81
2022/03/14 11:21:04;;;;;;;10.18;8.80;;;14.20;75.00;;;;;;4997585;28;20462;-81
2022/03/14 11:23:31;;;;;;;10.25;8.65;;;14.20;75.00;;;;;;5016342;28;20030;-81
2022/03/14 11:25:59;;;;;;;9.77;8.18;;;14.30;75.00;;;;;;5005815;28;20147;-81
2022/03/14 11:28:25;;;;;;;10.75;8.68;;;14.30;75.00;;;;;;4997776;28;20068;-82
2022/03/14 11:30:58;;;;;;;10.15;9.07;;;14.30;74.90;;;;;;4997428;28;20128;-81
2022/03/14 11:33:25;;;;;;;10.20;8.88;;;14.30;74.90;;;;;;5007523;28;20128;-81
2022/03/14 11:35:51;;;;;;;10.30;9.05;;;14.40;74.90;;;;;;4996823;28;20021;-82
2022/03/14 11:38:17;;;;;;;10.02;8.57;;;14.40;74.90;;;;;;5009432;28;20113;-81
2022/03/14 11:40:45;;;;;;;10.98;9.02;;;14.40;74.90;;;;;;5028497;28;20072;-80
2022/03/14 11:43:12;;;;;;;10.77;9.23;;;14.40;74.90;;;;;;5028612;28;20044;-81
2022/03/14 11:45:38;;;;;;;10.63;8.95;;;14.40;74.90;;;;;;4980000;28;20038;-80
2022/03/14 11:48:06;;;;;;;9.48;8.15;;;14.50;74.90;;;;;;5029186;28;20024;-80
2022/03/14 11:50:59;;;;;;;9.90;8.68;;;14.50;74.80;;;;;;5013182;28;20033;-79
2022/03/14 11:53:35;;;;;;;8.98;7.88;;;14.50;74.90;;;;;;5013594;28;20025;-80
2022/03/14 11:56:07;;;;;;;10.02;8.63;;;14.50;74.80;;;;;;5009353;28;20791;-80
2022/03/14 11:58:53;;;;;;;10.40;8.13;;;14.50;74.80;;;;;;5005725;28;20025;-80
2022/03/14 12:01:22;;;;;;;9.73;8.18;;;14.60;74.90;;;;;;5012298;28;20025;-80
2022/03/14 12:03:51;;;;;;;8.75;7.72;;;14.60;74.80;;;;;;5030666;28;20030;-80
2022/03/14 12:06:46;;;;;;;10.10;8.15;;;14.70;74.90;;;;;;5014276;28;20041;-80
2022/03/14 12:09:35;;;;;;;9.70;7.97;;;14.70;75.00;;;;;;5012916;28;20466;-80
2022/03/14 12:12:20;;;;;;;8.80;7.65;;;14.70;74.90;;;;;;5025147;28;20029;-80
2022/03/14 12:14:53;;;;;;;10.00;7.97;;;14.80;74.80;;;;;;5009424;28;20531;-80
2022/03/14 12:17:18;;;;;;;9.32;8.02;;;14.80;74.70;;;;;;4981345;28;20520;-81
2022/03/14 12:19:49;;;;;;;9.43;8.43;;;14.80;74.70;;;;;;5013132;28;20124;-81
2022/03/14 12:22:35;;;;;;;8.60;7.70;;;14.80;74.70;;;;;;4993271;28;20042;-80
2022/03/14 12:25:05;;;;;;;8.77;7.60;;;14.80;74.70;;;;;;5009196;28;20061;-81
2022/03/14 12:27:43;;;;;;;9.35;8.13;;;14.90;74.60;;;;;;4996050;28;20056;-80
2022/03/14 12:30:30;;;;;;;9.52;7.80;;;14.90;75.30;;;;;;4996734;28;20021;-80
2022/03/14 12:32:57;;;;;;;8.98;8.07;;;14.90;74.60;;;;;;5012649;28;20026;-80
2022/03/14 12:35:24;;;;;;;9.13;8.05;;;15.00;74.60;;;;;;5017359;28;20024;-81
2022/03/14 12:37:54;;;;;;;8.98;8.07;;;15.00;74.60;;;;;;5016120;28;20025;-81
2022/03/14 12:40:23;;;;;;;8.63;7.57;;;15.00;74.60;;;;;;5000537;28;20029;-80
2022/03/14 12:42:51;;;;;;;10.60;7.97;;;15.00;74.50;;;;;;4999556;28;20044;-80
2022/03/14 12:45:20;;;;;;;9.23;7.72;;;15.10;74.50;;;;;;4999259;28;20032;-80
2022/03/14 12:48:19;;;;;;;9.65;7.97;;;15.10;74.50;;;;;;5033360;28;20029;-81